Terminal Aerodrome Forecast
Issued by NWS Green Bay, WI

Home | Current Version | Previous Version | Graphics & Text | Print | Product List | Glossary On
Versions: 1 2 3 4 5 6 7 8 9 10 11 12 13 14 15 16 17 18
000
FTUS43 KGRB 200520
TAFGRB
TAF
KGRB 200520Z 2006/2106 17005KT P6SM VCSH SCT050 BKN100
      TEMPO 2008/2012 3SM -TSRA BKN025CB
     FM201200 28007KT 6SM -SHRA BKN030
     FM201800 30007KT P6SM SCT030 BKN100
     FM210100 VRB03KT P6SM SKC=

USA.gov is the U.S. government's official web portal to all federal, state and local government web resources and services.